createdAt,value
2019-05-01T00:01:02.425Z,21.40
2019-05-01T00:03:50.624Z,20.30
2019-05-01T00:06:24.088Z,16.50
2019-05-01T00:08:53.361Z,18.63
2019-05-01T00:11:22.626Z,16.83
2019-05-01T00:13:51.755Z,21.50
2019-05-01T00:16:21.007Z,21.43
2019-05-01T00:18:50.189Z,22.33
2019-05-01T00:21:19.348Z,19.07
2019-05-01T00:23:48.614Z,17.93
2019-05-01T00:26:17.766Z,18.63
2019-05-01T00:28:46.969Z,17.13
2019-05-01T00:31:16.368Z,21.03
2019-05-01T00:33:45.684Z,26.13
2019-05-01T00:36:14.898Z,24.80
2019-05-01T00:38:44.320Z,23.00
2019-05-01T00:41:13.620Z,18.40
2019-05-01T00:43:42.898Z,18.97
2019-05-01T00:46:12.076Z,20.33
2019-05-01T00:48:41.311Z,21.87
2019-05-01T00:51:10.578Z,19.17
2019-05-01T00:53:39.924Z,22.40
2019-05-01T00:56:17.130Z,21.17
2019-05-01T00:59:23.814Z,18.70
2019-05-01T01:02:09.530Z,21.50
2019-05-01T01:04:38.822Z,22.67
2019-05-01T01:07:08.202Z,25.93
2019-05-01T01:09:37.529Z,26.17
2019-05-01T01:12:06.795Z,25.30
2019-05-01T01:14:48.380Z,27.37
2019-05-01T01:17:17.681Z,30.37
2019-05-01T01:19:47.091Z,30.60
2019-05-01T01:22:16.421Z,32.13
2019-05-01T01:24:45.788Z,32.77
2019-05-01T01:27:15.363Z,31.13
2019-05-01T01:29:44.571Z,32.13
2019-05-01T01:32:13.747Z,38.70
2019-05-01T01:34:43.016Z,31.77
2019-05-01T01:37:12.277Z,34.17
2019-05-01T01:39:41.765Z,32.63
2019-05-01T01:42:11.305Z,43.63
2019-05-01T01:45:04.366Z,33.40
2019-05-01T01:47:33.689Z,30.17
2019-05-01T01:50:03.448Z,34.00
2019-05-01T01:52:32.803Z,35.03
2019-05-01T01:55:02.283Z,34.83
2019-05-01T01:57:33.087Z,30.60
2019-05-01T02:00:02.500Z,32.43
2019-05-01T02:02:52.687Z,33.50
2019-05-01T02:05:26.576Z,33.90
2019-05-01T02:07:55.953Z,35.60
2019-05-01T02:10:25.585Z,31.87
2019-05-01T02:12:54.934Z,32.43
2019-05-01T02:15:24.212Z,34.47
2019-05-01T02:17:53.353Z,34.93
2019-05-01T02:20:23.575Z,29.03
2019-05-01T02:22:52.912Z,30.00
2019-05-01T02:25:22.934Z,25.37
2019-05-01T02:28:10.242Z,29.10
2019-05-01T02:30:41.175Z,25.83
2019-05-01T02:33:12.559Z,31.90
2019-05-01T02:35:43.877Z,32.40
2019-05-01T02:38:15.430Z,26.57
2019-05-01T02:40:57.561Z,28.20
2019-05-01T02:43:37.768Z,24.10
2019-05-01T02:46:09.324Z,23.40
2019-05-01T02:48:41.909Z,26.20
2019-05-01T02:51:12.648Z,30.53
2019-05-01T02:53:45.624Z,27.40
2019-05-01T02:56:28.353Z,26.93
2019-05-01T02:58:59.207Z,30.93
2019-05-01T03:01:45.391Z,30.80
2019-05-01T03:04:00.184Z,35.30
2019-05-01T03:06:32.257Z,28.43
2019-05-01T03:09:05.678Z,31.73
2019-05-01T03:11:36.169Z,30.70
2019-05-01T03:14:05.691Z,33.83
2019-05-01T03:16:36.407Z,29.30
2019-05-01T03:19:10.629Z,30.00
2019-05-01T03:21:56.702Z,24.30
2019-05-01T03:24:27.637Z,30.07
2019-05-01T03:26:58.063Z,32.10
2019-05-01T03:29:28.103Z,34.77
2019-05-01T03:32:15.757Z,26.27
2019-05-01T03:34:29.175Z,28.43
2019-05-01T03:36:58.492Z,29.10
2019-05-01T03:39:28.269Z,28.37
2019-05-01T03:41:58.172Z,28.37
2019-05-01T03:44:27.532Z,19.17
2019-05-01T03:46:57.103Z,25.60
2019-05-01T03:49:26.884Z,30.20
2019-05-01T03:51:56.140Z,24.93
2019-05-01T03:54:25.488Z,32.67
2019-05-01T03:56:54.810Z,25.03
2019-05-01T03:59:24.912Z,30.60
2019-05-01T04:02:08.222Z,31.27
2019-05-01T04:04:37.646Z,30.23
2019-05-01T04:07:07.105Z,33.70
2019-05-01T04:09:36.908Z,31.17
2019-05-01T04:12:06.682Z,30.37
2019-05-01T04:14:39.163Z,30.97
2019-05-01T04:17:16.119Z,27.70
2019-05-01T04:19:45.454Z,28.70
2019-05-01T04:22:14.832Z,30.40
2019-05-01T04:24:44.380Z,33.73
2019-05-01T04:27:27.439Z,31.27
2019-05-01T04:30:32.979Z,32.50
2019-05-01T04:33:05.396Z,32.87
2019-05-01T04:35:53.381Z,31.40
2019-05-01T04:38:22.927Z,30.07
2019-05-01T04:40:52.384Z,36.53
2019-05-01T04:43:21.676Z,34.37
2019-05-01T04:45:51.031Z,34.93
2019-05-01T04:48:20.335Z,32.50
2019-05-01T04:50:49.597Z,31.00
2019-05-01T04:53:19.357Z,31.40
2019-05-01T04:55:48.650Z,34.37
2019-05-01T04:58:20.832Z,36.07
2019-05-01T05:00:50.327Z,33.97
2019-05-01T05:03:21.494Z,43.33
2019-05-01T05:05:50.931Z,39.43
2019-05-01T05:08:20.282Z,41.47
2019-05-01T05:10:51.139Z,45.90
2019-05-01T05:13:28.851Z,44.47
2019-05-01T05:16:07.875Z,42.30
2019-05-01T05:18:37.768Z,44.17
2019-05-01T05:21:07.846Z,46.87
2019-05-01T05:23:37.545Z,47.03
2019-05-01T05:26:07.039Z,46.57
2019-05-01T05:28:37.076Z,43.67
2019-05-01T05:31:07.708Z,43.30
2019-05-01T05:33:38.417Z,41.93
2019-05-01T05:36:09.275Z,49.50
2019-05-01T05:38:59.115Z,40.93
2019-05-01T05:41:29.567Z,44.13
2019-05-01T05:43:59.489Z,46.00
2019-05-01T05:46:28.831Z,42.37
2019-05-01T05:48:58.164Z,40.50
2019-05-01T05:51:46.777Z,48.23
2019-05-01T05:54:35.825Z,48.73
2019-05-01T05:57:15.923Z,50.90
2019-05-01T05:59:50.064Z,46.80
2019-05-01T06:02:33.569Z,54.07
2019-05-01T06:05:27.864Z,48.13
2019-05-01T06:08:30.972Z,55.10
2019-05-01T06:11:29.709Z,55.43
2019-05-01T06:14:07.850Z,52.90
2019-05-01T06:16:58.694Z,55.80
2019-05-01T06:19:56.068Z,51.90
2019-05-01T06:22:40.821Z,58.37
2019-05-01T06:25:21.642Z,58.93
2019-05-01T06:27:44.773Z,61.27
2019-05-01T06:30:15.496Z,57.97
2019-05-01T06:32:45.953Z,65.70
2019-05-01T06:35:15.680Z,58.60
2019-05-01T06:38:00.731Z,69.67
2019-05-01T06:40:44.853Z,66.87
2019-05-01T06:43:57.019Z,72.27
2019-05-01T06:46:52.729Z,63.63
2019-05-01T06:49:35.322Z,77.37
2019-05-01T06:52:05.733Z,84.73
2019-05-01T06:54:37.138Z,74.27
2019-05-01T06:57:07.023Z,71.90
2019-05-01T06:59:37.883Z,72.33
2019-05-01T07:02:11.668Z,74.10
2019-05-01T07:04:42.615Z,73.97
2019-05-01T07:07:24.720Z,70.97
2019-05-01T07:09:49.350Z,62.60
2019-05-01T07:12:23.808Z,63.20
2019-05-01T07:15:00.259Z,59.70
2019-05-01T07:17:29.903Z,62.07
2019-05-01T07:20:19.313Z,53.23
2019-05-01T07:22:49.393Z,57.77
2019-05-01T07:25:18.753Z,56.93
2019-05-01T07:27:48.115Z,54.00
2019-05-01T07:30:41.569Z,54.50
2019-05-01T07:33:11.927Z,50.10
2019-05-01T07:35:43.823Z,54.67
2019-05-01T07:38:18.451Z,50.17
2019-05-01T07:40:48.559Z,57.30
2019-05-01T07:43:46.070Z,46.10
2019-05-01T07:46:40.186Z,50.93
2019-05-01T07:49:13.137Z,44.83
2019-05-01T07:51:50.037Z,46.13
2019-05-01T07:54:20.606Z,44.60
2019-05-01T07:56:50.519Z,43.67
2019-05-01T07:59:22.747Z,48.50
2019-05-01T08:02:04.088Z,50.83
2019-05-01T08:04:36.943Z,44.27
2019-05-01T08:07:05.129Z,44.23
2019-05-01T08:09:41.087Z,46.67
2019-05-01T08:12:10.840Z,44.97
2019-05-01T08:14:40.433Z,44.77
2019-05-01T08:17:17.939Z,43.50
2019-05-01T08:20:01.699Z,42.90
2019-05-01T08:22:37.079Z,49.00
2019-05-01T08:25:06.396Z,42.30
2019-05-01T08:27:55.817Z,46.37
2019-05-01T08:30:48.056Z,44.33
2019-05-01T08:33:54.988Z,43.23
2019-05-01T08:36:47.318Z,42.13
2019-05-01T08:39:17.636Z,40.60
2019-05-01T08:41:47.012Z,38.23
2019-05-01T08:44:16.478Z,37.23
2019-05-01T08:46:58.129Z,41.57
2019-05-01T08:49:36.970Z,44.33
2019-05-01T08:52:12.670Z,39.13
2019-05-01T08:54:38.719Z,43.77
2019-05-01T08:57:08.181Z,40.97
2019-05-01T08:59:37.458Z,43.33
2019-05-01T09:02:09.534Z,34.77
2019-05-01T09:04:37.807Z,39.33
2019-05-01T09:07:09.534Z,36.50
2019-05-01T09:09:44.439Z,32.97
2019-05-01T09:12:11.913Z,36.73
2019-05-01T09:14:42.865Z,32.10
2019-05-01T09:17:12.275Z,39.27
2019-05-01T09:19:41.679Z,34.57
2019-05-01T09:22:11.080Z,30.33
2019-05-01T09:24:40.777Z,34.33
2019-05-01T09:27:31.919Z,32.80
2019-05-01T09:30:04.769Z,30.63
2019-05-01T09:32:37.567Z,31.57
2019-05-01T09:35:15.532Z,33.50
2019-05-01T09:37:38.802Z,33.93
2019-05-01T09:40:10.282Z,34.80
2019-05-01T09:42:42.407Z,35.93
2019-05-01T09:45:12.355Z,36.37
2019-05-01T09:47:41.654Z,34.57
2019-05-01T09:50:12.491Z,36.47
2019-05-01T09:53:01.222Z,33.70
2019-05-01T09:55:36.979Z,35.73
2019-05-01T09:58:06.241Z,40.07
2019-05-01T10:00:38.625Z,31.20
2019-05-01T10:03:07.850Z,39.03
2019-05-01T10:05:38.041Z,34.50
2019-05-01T10:08:11.038Z,36.53
2019-05-01T10:10:40.428Z,33.63
2019-05-01T10:13:09.796Z,32.40
2019-05-01T10:15:40.212Z,34.33
2019-05-01T10:18:09.568Z,29.63
2019-05-01T10:20:38.920Z,32.60
2019-05-01T10:23:13.238Z,33.53
2019-05-01T10:25:48.040Z,31.10
2019-05-01T10:28:23.469Z,31.80
2019-05-01T10:31:15.086Z,30.57
2019-05-01T10:33:46.728Z,33.93
2019-05-01T10:36:54.631Z,34.20
2019-05-01T10:39:21.484Z,31.60
2019-05-01T10:41:50.815Z,33.83
2019-05-01T10:44:21.465Z,30.77
2019-05-01T10:46:50.960Z,31.73
2019-05-01T10:49:20.437Z,34.87
2019-05-01T10:51:49.714Z,31.47
2019-05-01T10:54:18.945Z,31.97
2019-05-01T10:56:49.386Z,34.97
2019-05-01T10:59:18.599Z,35.20
2019-05-01T11:01:56.228Z,34.57
2019-05-01T11:04:28.498Z,31.30
2019-05-01T11:06:57.903Z,30.67
2019-05-01T11:09:27.253Z,36.93
2019-05-01T11:11:56.515Z,32.40
2019-05-01T11:14:27.885Z,34.30
2019-05-01T11:16:57.327Z,28.90
2019-05-01T11:19:29.506Z,30.43
2019-05-01T11:22:00.524Z,28.80
2019-05-01T11:24:29.755Z,29.50
2019-05-01T11:27:01.400Z,27.87
2019-05-01T11:29:30.883Z,28.07
2019-05-01T11:32:08.381Z,27.03
2019-05-01T11:34:59.759Z,29.60
2019-05-01T11:37:59.955Z,26.40
2019-05-01T11:40:33.115Z,30.77
2019-05-01T11:43:09.524Z,28.97
2019-05-01T11:45:38.892Z,28.23
2019-05-01T11:48:14.553Z,26.33
2019-05-01T11:50:43.830Z,28.57
2019-05-01T11:53:13.006Z,28.47
2019-05-01T11:55:42.477Z,30.13
2019-05-01T11:58:11.864Z,33.63
2019-05-01T12:00:41.323Z,28.90
2019-05-01T12:03:11.662Z,29.63
2019-05-01T12:05:41.078Z,25.53
2019-05-01T12:08:12.163Z,26.40
2019-05-01T12:10:49.294Z,26.33
2019-05-01T12:13:18.696Z,24.83
2019-05-01T12:15:54.438Z,21.90
2019-05-01T12:18:47.760Z,20.70
2019-05-01T12:21:52.138Z,20.87
2019-05-01T12:24:44.326Z,21.07
2019-05-01T12:27:13.730Z,20.27
2019-05-01T12:29:43.367Z,18.23
2019-05-01T12:32:14.050Z,20.13
2019-05-01T12:34:43.384Z,17.80
2019-05-01T12:37:18.597Z,17.77
2019-05-01T12:39:50.900Z,17.20
2019-05-01T12:42:29.332Z,18.73
2019-05-01T12:45:03.249Z,25.30
2019-05-01T12:48:03.671Z,25.07
2019-05-01T12:50:36.289Z,24.90
2019-05-01T12:53:40.817Z,24.77
2019-05-01T12:56:29.225Z,27.30
2019-05-01T12:59:11.020Z,27.03
2019-05-01T13:01:57.518Z,28.13
2019-05-01T13:04:40.585Z,27.63
2019-05-01T13:07:18.335Z,29.17
2019-05-01T13:09:54.175Z,29.47
2019-05-01T13:12:27.165Z,28.50
2019-05-01T13:15:10.667Z,27.93
2019-05-01T13:18:06.550Z,27.47
2019-05-01T13:20:45.659Z,27.30
2019-05-01T13:23:25.957Z,28.37
2019-05-01T13:25:58.109Z,26.67
2019-05-01T13:28:49.617Z,26.70
2019-05-01T13:31:28.256Z,29.60
2019-05-01T13:33:57.501Z,26.83
2019-05-01T13:36:29.071Z,27.13
2019-05-01T13:38:58.595Z,23.43
2019-05-01T13:41:30.827Z,21.63
2019-05-01T13:44:01.905Z,20.37
2019-05-01T13:46:32.803Z,19.43
2019-05-01T13:49:02.342Z,23.40
2019-05-01T13:51:32.755Z,19.20
2019-05-01T13:54:02.600Z,19.93
2019-05-01T13:56:31.962Z,19.40
2019-05-01T13:59:04.301Z,18.80
2019-05-01T14:01:33.698Z,21.60
2019-05-01T14:04:11.940Z,22.70
2019-05-01T14:06:43.415Z,20.33
2019-05-01T14:09:41.315Z,21.90
2019-05-01T14:12:10.802Z,18.27
2019-05-01T14:14:40.162Z,24.70
2019-05-01T14:17:09.405Z,21.40
2019-05-01T14:19:40.628Z,23.30
2019-05-01T14:22:43.936Z,22.27
2019-05-01T14:25:14.315Z,22.07
2019-05-01T14:27:43.775Z,17.57
2019-05-01T14:30:13.414Z,18.43
2019-05-01T14:32:42.772Z,17.43
2019-05-01T14:35:12.778Z,15.07
2019-05-01T14:37:42.905Z,15.80
2019-05-01T14:40:13.592Z,15.70
2019-05-01T14:43:20.851Z,15.53
2019-05-01T14:45:50.212Z,15.90
2019-05-01T14:48:27.156Z,16.77
2019-05-01T14:50:56.601Z,17.47
2019-05-01T14:53:26.140Z,15.10
2019-05-01T14:55:57.889Z,18.63
2019-05-01T14:58:29.980Z,16.83
2019-05-01T15:01:08.598Z,16.07
2019-05-01T15:03:43.786Z,17.93
2019-05-01T15:06:13.380Z,16.90
2019-05-01T15:08:42.747Z,18.37
2019-05-01T15:11:12.103Z,18.93
2019-05-01T15:14:09.507Z,16.47
2019-05-01T15:16:43.939Z,20.63
2019-05-01T15:19:15.855Z,17.73
2019-05-01T15:21:51.511Z,20.63
2019-05-01T15:24:22.394Z,18.90
2019-05-01T15:27:15.511Z,16.70
2019-05-01T15:29:45.315Z,16.00
2019-05-01T15:32:14.751Z,18.07
2019-05-01T15:34:44.055Z,17.90
2019-05-01T15:37:16.132Z,15.27
2019-05-01T15:39:51.551Z,16.67
2019-05-01T15:42:45.646Z,16.17
2019-05-01T15:45:15.187Z,15.20
2019-05-01T15:47:45.620Z,17.40
2019-05-01T15:50:15.681Z,17.17
2019-05-01T15:52:45.147Z,16.30
2019-05-01T15:55:14.793Z,16.40
2019-05-01T15:57:44.095Z,17.30
2019-05-01T16:00:16.193Z,13.60
2019-05-01T16:02:45.507Z,13.20
2019-05-01T16:05:14.791Z,13.13
2019-05-01T16:07:44.131Z,12.63
2019-05-01T16:10:16.100Z,14.93
2019-05-01T16:12:56.132Z,22.80
2019-05-01T16:15:31.191Z,13.73
2019-05-01T16:18:00.566Z,14.27
2019-05-01T16:20:29.974Z,14.80
2019-05-01T16:23:01.059Z,15.43
2019-05-01T16:25:31.628Z,18.10
2019-05-01T16:28:00.888Z,18.47
2019-05-01T16:30:30.964Z,17.17
2019-05-01T16:33:00.836Z,15.40
2019-05-01T16:35:30.297Z,15.93
2019-05-01T16:38:02.832Z,16.13
2019-05-01T16:41:00.215Z,16.60
2019-05-01T16:43:29.566Z,17.03
2019-05-01T16:45:59.737Z,15.70
2019-05-01T16:48:29.249Z,15.20
2019-05-01T16:50:59.568Z,15.77
2019-05-01T16:53:29.013Z,15.73
2019-05-01T16:55:58.340Z,15.30
2019-05-01T16:58:27.863Z,13.73
2019-05-01T17:01:06.236Z,15.60
2019-05-01T17:03:54.453Z,20.67
2019-05-01T17:06:58.210Z,15.90
2019-05-01T17:09:52.439Z,16.43
2019-05-01T17:12:22.443Z,15.97
2019-05-01T17:14:51.781Z,16.27
2019-05-01T17:17:22.265Z,16.00
2019-05-01T17:19:51.651Z,20.53
2019-05-01T17:22:23.145Z,17.03
2019-05-01T17:24:52.577Z,16.77
2019-05-01T17:27:22.873Z,16.20
2019-05-01T17:29:52.283Z,20.77
2019-05-01T17:32:22.446Z,17.93
2019-05-01T17:34:55.231Z,16.50
2019-05-01T17:37:24.593Z,18.97
2019-05-01T17:39:53.939Z,17.87
2019-05-01T17:42:23.203Z,18.97
2019-05-01T17:44:55.909Z,15.83
2019-05-01T17:47:31.637Z,16.70
2019-05-01T17:50:00.937Z,20.93
2019-05-01T17:52:30.150Z,19.00
2019-05-01T17:55:01.401Z,18.50
2019-05-01T17:57:33.630Z,18.83
2019-05-01T18:00:03.850Z,15.13
2019-05-01T18:02:46.879Z,16.30
2019-05-01T18:05:38.353Z,16.27
2019-05-01T18:08:07.779Z,15.60
2019-05-01T18:10:38.596Z,16.13
2019-05-01T18:13:08.232Z,17.57
2019-05-01T18:15:40.016Z,17.63
2019-05-01T18:18:10.726Z,16.90
2019-05-01T18:20:40.724Z,16.10
2019-05-01T18:23:19.495Z,19.83
2019-05-01T18:25:55.579Z,16.60
2019-05-01T18:28:38.635Z,17.80
2019-05-01T18:31:12.036Z,15.67
2019-05-01T18:33:41.625Z,15.10
2019-05-01T18:36:10.978Z,19.00
2019-05-01T18:38:52.498Z,16.47
2019-05-01T18:41:29.104Z,15.90
2019-05-01T18:43:58.493Z,17.60
2019-05-01T18:46:27.822Z,22.73
2019-05-01T18:48:57.066Z,18.03
2019-05-01T18:51:36.182Z,17.73
2019-05-01T18:54:03.474Z,22.40
2019-05-01T18:56:32.704Z,22.80
2019-05-01T18:59:02.078Z,18.63
2019-05-01T19:01:32.706Z,20.20
2019-05-01T19:04:02.220Z,18.90
2019-05-01T19:06:41.042Z,18.90
2019-05-01T19:09:14.249Z,20.17
2019-05-01T19:11:33.611Z,22.17
2019-05-01T19:14:02.988Z,18.00
2019-05-01T19:16:32.299Z,25.73
2019-05-01T19:19:03.921Z,23.97
2019-05-01T19:22:08.915Z,23.03
2019-05-01T19:24:40.193Z,17.83
2019-05-01T19:27:09.737Z,20.90
2019-05-01T19:29:39.197Z,22.77
2019-05-01T19:32:08.620Z,21.40
2019-05-01T19:34:37.899Z,22.90
2019-05-01T19:37:07.670Z,21.93
2019-05-01T19:39:43.752Z,21.53
2019-05-01T19:42:08.147Z,30.63
2019-05-01T19:44:37.748Z,24.93
2019-05-01T19:47:07.942Z,22.17
2019-05-01T19:49:37.508Z,27.77
2019-05-01T19:52:07.951Z,24.50
2019-05-01T19:54:37.422Z,23.53
2019-05-01T19:57:09.162Z,24.60
2019-05-01T19:59:38.854Z,32.10
2019-05-01T20:02:09.599Z,27.67
2019-05-01T20:04:38.894Z,22.60
2019-05-01T20:07:10.494Z,31.20
2019-05-01T20:09:39.387Z,28.13
2019-05-01T20:12:08.663Z,23.13
2019-05-01T20:14:38.041Z,25.30
2019-05-01T20:17:10.011Z,24.60
2019-05-01T20:19:45.360Z,22.10
2019-05-01T20:22:14.683Z,23.40
2019-05-01T20:24:45.718Z,27.80
2019-05-01T20:27:15.235Z,25.27
2019-05-01T20:29:44.525Z,21.40
2019-05-01T20:32:14.981Z,20.23
2019-05-01T20:34:48.046Z,24.43
2019-05-01T20:37:15.218Z,24.03
2019-05-01T20:39:44.666Z,22.70
2019-05-01T20:42:32.475Z,24.10
2019-05-01T20:45:05.461Z,23.43
2019-05-01T20:47:35.250Z,21.63
2019-05-01T20:50:04.436Z,27.00
2019-05-01T20:52:33.852Z,24.33
2019-05-01T20:55:03.277Z,25.43
2019-05-01T20:57:34.786Z,23.47
2019-05-01T21:00:04.984Z,23.87
2019-05-01T21:02:34.382Z,23.07
2019-05-01T21:05:21.816Z,21.20
2019-05-01T21:08:10.424Z,26.67
2019-05-01T21:11:06.039Z,22.87
2019-05-01T21:13:34.454Z,21.37
2019-05-01T21:16:04.968Z,21.33
2019-05-01T21:18:34.224Z,23.73
2019-05-01T21:21:03.638Z,21.23
2019-05-01T21:23:33.760Z,20.80
2019-05-01T21:26:03.904Z,25.90
2019-05-01T21:28:34.087Z,22.48
2019-05-01T21:31:04.019Z,25.37
2019-05-01T21:33:33.889Z,23.47
2019-05-01T21:36:09.702Z,23.23
2019-05-01T21:38:38.992Z,21.87
2019-05-01T21:41:08.296Z,23.50
2019-05-01T21:43:37.616Z,28.07
2019-05-01T21:46:06.919Z,27.07
2019-05-01T21:48:36.227Z,27.80
2019-05-01T21:51:07.367Z,26.77
2019-05-01T21:53:37.289Z,22.63
2019-05-01T21:56:07.753Z,26.73
2019-05-01T21:58:37.112Z,24.40
2019-05-01T22:01:07.317Z,22.50
2019-05-01T22:03:36.633Z,22.87
2019-05-01T22:06:05.859Z,27.70
2019-05-01T22:08:39.291Z,26.33
2019-05-01T22:11:07.047Z,25.77
2019-05-01T22:13:36.331Z,31.73
2019-05-01T22:16:13.137Z,27.20
2019-05-01T22:19:23.555Z,36.20
2019-05-01T22:22:02.375Z,25.40
2019-05-01T22:24:48.442Z,26.30
2019-05-01T22:27:21.658Z,26.67
2019-05-01T22:29:57.606Z,31.77
2019-05-01T22:32:34.577Z,25.27
2019-05-01T22:35:23.468Z,28.97
2019-05-01T22:37:52.926Z,32.37
2019-05-01T22:40:31.158Z,22.13
2019-05-01T22:43:00.455Z,28.70
2019-05-01T22:45:29.712Z,34.67
2019-05-01T22:47:58.989Z,35.27
2019-05-01T22:50:28.361Z,44.83
2019-05-01T22:52:57.757Z,42.80
2019-05-01T22:55:27.246Z,36.80
2019-05-01T22:58:01.243Z,38.47
2019-05-01T23:00:46.847Z,32.23
2019-05-01T23:03:40.519Z,33.37
2019-05-01T23:06:07.860Z,33.00
2019-05-01T23:08:37.460Z,30.77
2019-05-01T23:11:19.247Z,32.77
2019-05-01T23:13:38.004Z,30.90
2019-05-01T23:16:07.797Z,32.00
2019-05-01T23:18:37.084Z,26.60
2019-05-01T23:21:09.805Z,27.90
2019-05-01T23:23:37.326Z,26.43
2019-05-01T23:26:06.520Z,26.57
2019-05-01T23:28:39.751Z,28.73
2019-05-01T23:31:06.846Z,28.67
2019-05-01T23:33:36.093Z,27.57
2019-05-01T23:36:05.364Z,30.53
2019-05-01T23:38:36.038Z,34.83
2019-05-01T23:41:05.377Z,27.50
2019-05-01T23:43:35.652Z,28.13
2019-05-01T23:46:05.278Z,28.60
2019-05-01T23:48:35.579Z,24.60
2019-05-01T23:51:05.033Z,26.07
2019-05-01T23:53:34.385Z,24.60
2019-05-01T23:56:03.629Z,22.07
2019-05-01T23:58:34.012Z,30.50
